sensor_id;sensor_type;location;lat;lon;timestamp;P1;durP1;ratioP1;P2;durP2;ratioP2
11735;SDS011;5924;51.398;7.088;2023-03-01T00:00:39;19.00;;;9.87;;
11735;SDS011;5924;51.398;7.088;2023-03-01T00:03:05;18.37;;;11.10;;
11735;SDS011;5924;51.398;7.088;2023-03-01T00:05:31;20.10;;;11.10;;
11735;SDS011;5924;51.398;7.088;2023-03-01T00:07:57;20.20;;;11.70;;
11735;SDS011;5924;51.398;7.088;2023-03-01T00:10:23;27.67;;;13.10;;
11735;SDS011;5924;51.398;7.088;2023-03-01T00:12:49;22.53;;;13.13;;
11735;SDS011;5924;51.398;7.088;2023-03-01T00:15:14;30.77;;;13.80;;
11735;SDS011;5924;51.398;7.088;2023-03-01T00:17:40;20.50;;;11.60;;
11735;SDS011;5924;51.398;7.088;2023-03-01T00:20:06;22.97;;;11.67;;
11735;SDS011;5924;51.398;7.088;2023-03-01T00:22:35;25.17;;;12.10;;
11735;SDS011;5924;51.398;7.088;2023-03-01T00:25:01;23.17;;;11.80;;
11735;SDS011;5924;51.398;7.088;2023-03-01T00:27:27;17.87;;;10.97;;
11735;SDS011;5924;51.398;7.088;2023-03-01T00:29:53;17.27;;;10.57;;
11735;SDS011;5924;51.398;7.088;2023-03-01T00:32:18;20.70;;;11.10;;
11735;SDS011;5924;51.398;7.088;2023-03-01T00:34:44;18.40;;;10.53;;
11735;SDS011;5924;51.398;7.088;2023-03-01T00:37:22;18.60;;;10.93;;
11735;SDS011;5924;51.398;7.088;2023-03-01T00:39:48;19.80;;;10.47;;
11735;SDS011;5924;51.398;7.088;2023-03-01T00:42:14;26.97;;;13.23;;
11735;SDS011;5924;51.398;7.088;2023-03-01T00:44:40;26.30;;;11.87;;
11735;SDS011;5924;51.398;7.088;2023-03-01T00:47:06;23.90;;;12.77;;
11735;SDS011;5924;51.398;7.088;2023-03-01T00:49:32;18.77;;;11.70;;
11735;SDS011;5924;51.398;7.088;2023-03-01T00:51:57;18.97;;;11.37;;
11735;SDS011;5924;51.398;7.088;2023-03-01T00:54:24;18.17;;;11.30;;
11735;SDS011;5924;51.398;7.088;2023-03-01T00:56:49;19.23;;;10.60;;
11735;SDS011;5924;51.398;7.088;2023-03-01T00:59:15;15.50;;;8.53;;
11735;SDS011;5924;51.398;7.088;2023-03-01T01:01:41;15.50;;;11.57;;
11735;SDS011;5924;51.398;7.088;2023-03-01T01:04:07;20.97;;;10.10;;
11735;SDS011;5924;51.398;7.088;2023-03-01T01:06:37;19.20;;;10.43;;
11735;SDS011;5924;51.398;7.088;2023-03-01T01:09:07;15.90;;;10.47;;
11735;SDS011;5924;51.398;7.088;2023-03-01T01:11:35;23.83;;;10.33;;
11735;SDS011;5924;51.398;7.088;2023-03-01T01:14:01;16.20;;;10.07;;
11735;SDS011;5924;51.398;7.088;2023-03-01T01:16:28;15.43;;;10.27;;
11735;SDS011;5924;51.398;7.088;2023-03-01T01:18:55;14.80;;;9.40;;
11735;SDS011;5924;51.398;7.088;2023-03-01T01:21:22;11.30;;;10.00;;
11735;SDS011;5924;51.398;7.088;2023-03-01T01:23:50;14.80;;;9.93;;
11735;SDS011;5924;51.398;7.088;2023-03-01T01:26:24;13.03;;;9.30;;
11735;SDS011;5924;51.398;7.088;2023-03-01T01:28:52;16.43;;;9.83;;
11735;SDS011;5924;51.398;7.088;2023-03-01T01:31:19;16.83;;;9.73;;
11735;SDS011;5924;51.398;7.088;2023-03-01T01:33:45;18.73;;;9.97;;
11735;SDS011;5924;51.398;7.088;2023-03-01T01:36:11;13.87;;;9.23;;
11735;SDS011;5924;51.398;7.088;2023-03-01T01:38:38;13.73;;;10.10;;
11735;SDS011;5924;51.398;7.088;2023-03-01T01:41:05;10.87;;;8.97;;
11735;SDS011;5924;51.398;7.088;2023-03-01T01:43:38;16.93;;;8.97;;
11735;SDS011;5924;51.398;7.088;2023-03-01T01:46:28;15.70;;;9.03;;
11735;SDS011;5924;51.398;7.088;2023-03-01T01:49:00;13.20;;;8.93;;
11735;SDS011;5924;51.398;7.088;2023-03-01T01:51:30;14.07;;;10.40;;
11735;SDS011;5924;51.398;7.088;2023-03-01T01:54:05;16.90;;;10.20;;
11735;SDS011;5924;51.398;7.088;2023-03-01T01:56:35;13.97;;;9.07;;
11735;SDS011;5924;51.398;7.088;2023-03-01T01:59:05;13.17;;;9.67;;
11735;SDS011;5924;51.398;7.088;2023-03-01T02:01:31;12.20;;;9.30;;
11735;SDS011;5924;51.398;7.088;2023-03-01T02:03:56;16.57;;;10.13;;
11735;SDS011;5924;51.398;7.088;2023-03-01T02:09:35;17.40;;;10.87;;
11735;SDS011;5924;51.398;7.088;2023-03-01T02:12:01;13.50;;;9.90;;
11735;SDS011;5924;51.398;7.088;2023-03-01T02:14:29;16.07;;;10.40;;
11735;SDS011;5924;51.398;7.088;2023-03-01T02:16:54;16.60;;;9.40;;
11735;SDS011;5924;51.398;7.088;2023-03-01T02:19:39;13.00;;;9.37;;
11735;SDS011;5924;51.398;7.088;2023-03-01T02:22:24;16.20;;;9.47;;
11735;SDS011;5924;51.398;7.088;2023-03-01T02:27:25;19.73;;;10.23;;
11735;SDS011;5924;51.398;7.088;2023-03-01T02:29:56;16.13;;;10.50;;
11735;SDS011;5924;51.398;7.088;2023-03-01T02:32:21;13.67;;;10.30;;
11735;SDS011;5924;51.398;7.088;2023-03-01T02:34:51;27.10;;;11.17;;
11735;SDS011;5924;51.398;7.088;2023-03-01T02:37:19;14.30;;;9.37;;
11735;SDS011;5924;51.398;7.088;2023-03-01T02:39:50;14.13;;;8.90;;
11735;SDS011;5924;51.398;7.088;2023-03-01T02:42:23;22.47;;;10.60;;
11735;SDS011;5924;51.398;7.088;2023-03-01T02:44:51;10.93;;;9.00;;
11735;SDS011;5924;51.398;7.088;2023-03-01T02:47:18;14.17;;;9.53;;
11735;SDS011;5924;51.398;7.088;2023-03-01T02:49:44;11.30;;;8.93;;
11735;SDS011;5924;51.398;7.088;2023-03-01T02:55:06;14.37;;;9.47;;
11735;SDS011;5924;51.398;7.088;2023-03-01T02:57:38;13.20;;;9.30;;
11735;SDS011;5924;51.398;7.088;2023-03-01T03:00:08;13.87;;;9.63;;
11735;SDS011;5924;51.398;7.088;2023-03-01T03:02:44;11.50;;;8.77;;
11735;SDS011;5924;51.398;7.088;2023-03-01T03:05:21;11.00;;;8.87;;
11735;SDS011;5924;51.398;7.088;2023-03-01T03:07:52;12.83;;;8.83;;
11735;SDS011;5924;51.398;7.088;2023-03-01T03:10:28;15.77;;;9.73;;
11735;SDS011;5924;51.398;7.088;2023-03-01T03:12:59;14.60;;;9.27;;
11735;SDS011;5924;51.398;7.088;2023-03-01T03:15:27;12.90;;;9.43;;
11735;SDS011;5924;51.398;7.088;2023-03-01T03:17:54;13.90;;;9.20;;
11735;SDS011;5924;51.398;7.088;2023-03-01T03:20:22;13.37;;;8.97;;
11735;SDS011;5924;51.398;7.088;2023-03-01T03:22:51;16.73;;;9.57;;
11735;SDS011;5924;51.398;7.088;2023-03-01T03:25:18;21.53;;;10.70;;
11735;SDS011;5924;51.398;7.088;2023-03-01T03:27:45;14.37;;;9.57;;
11735;SDS011;5924;51.398;7.088;2023-03-01T03:30:14;12.80;;;9.43;;
11735;SDS011;5924;51.398;7.088;2023-03-01T03:32:42;15.83;;;9.90;;
11735;SDS011;5924;51.398;7.088;2023-03-01T03:35:18;17.63;;;9.80;;
11735;SDS011;5924;51.398;7.088;2023-03-01T03:37:45;15.40;;;9.60;;
11735;SDS011;5924;51.398;7.088;2023-03-01T03:40:26;21.70;;;11.53;;
11735;SDS011;5924;51.398;7.088;2023-03-01T03:43:00;22.53;;;10.57;;
11735;SDS011;5924;51.398;7.088;2023-03-01T03:45:27;11.80;;;9.30;;
11735;SDS011;5924;51.398;7.088;2023-03-01T03:47:53;14.33;;;9.40;;
11735;SDS011;5924;51.398;7.088;2023-03-01T03:50:19;14.77;;;9.93;;
11735;SDS011;5924;51.398;7.088;2023-03-01T03:52:44;20.33;;;9.80;;
11735;SDS011;5924;51.398;7.088;2023-03-01T03:55:11;13.10;;;9.47;;
11735;SDS011;5924;51.398;7.088;2023-03-01T03:57:37;9.67;;;8.67;;
11735;SDS011;5924;51.398;7.088;2023-03-01T04:00:04;10.10;;;9.10;;
11735;SDS011;5924;51.398;7.088;2023-03-01T04:02:37;11.17;;;8.43;;
11735;SDS011;5924;51.398;7.088;2023-03-01T04:05:07;17.73;;;10.30;;
11735;SDS011;5924;51.398;7.088;2023-03-01T04:07:37;13.93;;;9.10;;
11735;SDS011;5924;51.398;7.088;2023-03-01T04:10:04;13.43;;;8.90;;
11735;SDS011;5924;51.398;7.088;2023-03-01T04:12:32;12.53;;;8.73;;
11735;SDS011;5924;51.398;7.088;2023-03-01T04:14:59;11.00;;;8.43;;
11735;SDS011;5924;51.398;7.088;2023-03-01T04:17:25;12.60;;;9.13;;
11735;SDS011;5924;51.398;7.088;2023-03-01T04:19:51;18.13;;;10.00;;
11735;SDS011;5924;51.398;7.088;2023-03-01T04:22:16;10.80;;;8.93;;
11735;SDS011;5924;51.398;7.088;2023-03-01T04:24:43;16.60;;;9.20;;
11735;SDS011;5924;51.398;7.088;2023-03-01T04:27:10;12.30;;;9.17;;
11735;SDS011;5924;51.398;7.088;2023-03-01T04:29:36;16.52;;;11.10;;
11735;SDS011;5924;51.398;7.088;2023-03-01T04:32:02;13.03;;;9.43;;
11735;SDS011;5924;51.398;7.088;2023-03-01T04:34:28;16.48;;;9.75;;
11735;SDS011;5924;51.398;7.088;2023-03-01T04:36:54;16.00;;;9.97;;
11735;SDS011;5924;51.398;7.088;2023-03-01T04:39:20;13.00;;;8.60;;
11735;SDS011;5924;51.398;7.088;2023-03-01T04:41:46;15.07;;;9.90;;
11735;SDS011;5924;51.398;7.088;2023-03-01T04:44:11;16.43;;;10.20;;
11735;SDS011;5924;51.398;7.088;2023-03-01T04:46:37;13.90;;;9.30;;
11735;SDS011;5924;51.398;7.088;2023-03-01T04:49:03;17.63;;;10.40;;
11735;SDS011;5924;51.398;7.088;2023-03-01T04:51:30;14.37;;;9.67;;
11735;SDS011;5924;51.398;7.088;2023-03-01T04:53:57;14.47;;;9.93;;
11735;SDS011;5924;51.398;7.088;2023-03-01T04:56:23;17.00;;;10.37;;
11735;SDS011;5924;51.398;7.088;2023-03-01T04:58:48;12.43;;;9.30;;
11735;SDS011;5924;51.398;7.088;2023-03-01T05:01:18;13.00;;;10.47;;
11735;SDS011;5924;51.398;7.088;2023-03-01T05:03:48;14.73;;;8.90;;
11735;SDS011;5924;51.398;7.088;2023-03-01T05:06:18;14.43;;;9.17;;
11735;SDS011;5924;51.398;7.088;2023-03-01T05:08:45;14.98;;;9.48;;
11735;SDS011;5924;51.398;7.088;2023-03-01T05:11:11;15.60;;;10.47;;
11735;SDS011;5924;51.398;7.088;2023-03-01T05:13:37;17.10;;;9.73;;
11735;SDS011;5924;51.398;7.088;2023-03-01T05:16:04;17.37;;;10.90;;
11735;SDS011;5924;51.398;7.088;2023-03-01T05:18:32;14.50;;;10.35;;
11735;SDS011;5924;51.398;7.088;2023-03-01T05:21:09;15.60;;;9.80;;
11735;SDS011;5924;51.398;7.088;2023-03-01T05:23:36;14.90;;;9.67;;
11735;SDS011;5924;51.398;7.088;2023-03-01T05:26:03;10.40;;;9.10;;
11735;SDS011;5924;51.398;7.088;2023-03-01T05:28:30;14.23;;;10.63;;
11735;SDS011;5924;51.398;7.088;2023-03-01T05:30:56;16.60;;;11.10;;
11735;SDS011;5924;51.398;7.088;2023-03-01T05:33:23;16.77;;;9.80;;
11735;SDS011;5924;51.398;7.088;2023-03-01T05:35:50;17.43;;;9.63;;
11735;SDS011;5924;51.398;7.088;2023-03-01T05:38:19;13.00;;;10.00;;
11735;SDS011;5924;51.398;7.088;2023-03-01T05:40:46;18.47;;;10.20;;
11735;SDS011;5924;51.398;7.088;2023-03-01T05:43:13;14.13;;;9.83;;
11735;SDS011;5924;51.398;7.088;2023-03-01T05:45:40;19.02;;;11.18;;
11735;SDS011;5924;51.398;7.088;2023-03-01T05:48:07;21.60;;;10.97;;
11735;SDS011;5924;51.398;7.088;2023-03-01T05:50:35;20.97;;;12.40;;
11735;SDS011;5924;51.398;7.088;2023-03-01T05:53:04;19.17;;;11.57;;
11735;SDS011;5924;51.398;7.088;2023-03-01T05:55:34;20.57;;;11.10;;
11735;SDS011;5924;51.398;7.088;2023-03-01T05:58:02;16.45;;;10.57;;
11735;SDS011;5924;51.398;7.088;2023-03-01T06:00:30;14.82;;;9.65;;
11735;SDS011;5924;51.398;7.088;2023-03-01T06:02:56;23.53;;;11.80;;
11735;SDS011;5924;51.398;7.088;2023-03-01T06:05:23;17.50;;;11.65;;
11735;SDS011;5924;51.398;7.088;2023-03-01T06:07:50;17.03;;;11.80;;
11735;SDS011;5924;51.398;7.088;2023-03-01T06:10:17;23.23;;;12.43;;
11735;SDS011;5924;51.398;7.088;2023-03-01T06:12:44;16.70;;;11.87;;
11735;SDS011;5924;51.398;7.088;2023-03-01T06:15:11;28.70;;;13.50;;
11735;SDS011;5924;51.398;7.088;2023-03-01T06:17:39;19.08;;;11.13;;
11735;SDS011;5924;51.398;7.088;2023-03-01T06:20:07;23.23;;;13.15;;
11735;SDS011;5924;51.398;7.088;2023-03-01T06:22:35;24.57;;;12.47;;
11735;SDS011;5924;51.398;7.088;2023-03-01T06:25:01;21.60;;;13.33;;
11735;SDS011;5924;51.398;7.088;2023-03-01T06:27:27;25.95;;;12.40;;
11735;SDS011;5924;51.398;7.088;2023-03-01T06:29:52;24.10;;;12.50;;
11735;SDS011;5924;51.398;7.088;2023-03-01T06:32:18;22.00;;;13.33;;
11735;SDS011;5924;51.398;7.088;2023-03-01T06:34:44;33.10;;;14.20;;
11735;SDS011;5924;51.398;7.088;2023-03-01T06:37:10;25.17;;;13.00;;
11735;SDS011;5924;51.398;7.088;2023-03-01T06:39:36;23.00;;;13.80;;
11735;SDS011;5924;51.398;7.088;2023-03-01T06:42:02;21.90;;;14.20;;
11735;SDS011;5924;51.398;7.088;2023-03-01T06:44:27;27.33;;;14.80;;
11735;SDS011;5924;51.398;7.088;2023-03-01T06:46:53;24.77;;;14.70;;
11735;SDS011;5924;51.398;7.088;2023-03-01T06:49:19;24.23;;;13.53;;
11735;SDS011;5924;51.398;7.088;2023-03-01T06:51:45;27.83;;;14.63;;
11735;SDS011;5924;51.398;7.088;2023-03-01T06:54:11;29.07;;;14.67;;
11735;SDS011;5924;51.398;7.088;2023-03-01T06:56:37;27.63;;;15.77;;
11735;SDS011;5924;51.398;7.088;2023-03-01T06:59:03;27.13;;;15.07;;
11735;SDS011;5924;51.398;7.088;2023-03-01T07:01:29;28.70;;;15.00;;
11735;SDS011;5924;51.398;7.088;2023-03-01T07:03:55;32.70;;;15.90;;
11735;SDS011;5924;51.398;7.088;2023-03-01T07:06:21;26.03;;;16.17;;
11735;SDS011;5924;51.398;7.088;2023-03-01T07:08:48;34.17;;;15.80;;
11735;SDS011;5924;51.398;7.088;2023-03-01T07:11:14;35.47;;;18.13;;
11735;SDS011;5924;51.398;7.088;2023-03-01T07:13:40;38.73;;;18.20;;
11735;SDS011;5924;51.398;7.088;2023-03-01T07:16:05;28.70;;;16.17;;
11735;SDS011;5924;51.398;7.088;2023-03-01T07:18:31;32.07;;;16.77;;
11735;SDS011;5924;51.398;7.088;2023-03-01T07:20:57;26.60;;;15.63;;
11735;SDS011;5924;51.398;7.088;2023-03-01T07:23:23;33.30;;;17.07;;
11735;SDS011;5924;51.398;7.088;2023-03-01T07:25:52;32.10;;;17.63;;
11735;SDS011;5924;51.398;7.088;2023-03-01T07:28:18;35.60;;;16.10;;
11735;SDS011;5924;51.398;7.088;2023-03-01T07:30:44;28.03;;;17.03;;
11735;SDS011;5924;51.398;7.088;2023-03-01T07:33:10;35.30;;;17.20;;
11735;SDS011;5924;51.398;7.088;2023-03-01T07:35:35;35.93;;;18.10;;
11735;SDS011;5924;51.398;7.088;2023-03-01T07:38:01;32.80;;;17.70;;
11735;SDS011;5924;51.398;7.088;2023-03-01T07:40:26;28.37;;;16.30;;
11735;SDS011;5924;51.398;7.088;2023-03-01T07:42:58;28.93;;;16.47;;
11735;SDS011;5924;51.398;7.088;2023-03-01T07:45:24;34.80;;;17.90;;
11735;SDS011;5924;51.398;7.088;2023-03-01T07:47:51;32.00;;;17.07;;
11735;SDS011;5924;51.398;7.088;2023-03-01T07:50:17;28.63;;;16.13;;
11735;SDS011;5924;51.398;7.088;2023-03-01T07:52:45;31.40;;;15.93;;
11735;SDS011;5924;51.398;7.088;2023-03-01T07:55:12;32.40;;;16.20;;
11735;SDS011;5924;51.398;7.088;2023-03-01T07:57:38;36.90;;;17.07;;
11735;SDS011;5924;51.398;7.088;2023-03-01T08:00:04;31.77;;;17.10;;
11735;SDS011;5924;51.398;7.088;2023-03-01T08:02:32;38.53;;;17.23;;
11735;SDS011;5924;51.398;7.088;2023-03-01T08:04:58;41.17;;;16.90;;
11735;SDS011;5924;51.398;7.088;2023-03-01T08:07:23;32.20;;;17.00;;
11735;SDS011;5924;51.398;7.088;2023-03-01T08:09:49;32.33;;;15.70;;
11735;SDS011;5924;51.398;7.088;2023-03-01T08:12:15;29.40;;;15.50;;
11735;SDS011;5924;51.398;7.088;2023-03-01T08:14:41;27.63;;;15.83;;
11735;SDS011;5924;51.398;7.088;2023-03-01T08:17:08;37.83;;;16.53;;
11735;SDS011;5924;51.398;7.088;2023-03-01T08:19:33;36.77;;;16.83;;
11735;SDS011;5924;51.398;7.088;2023-03-01T08:22:00;33.53;;;16.67;;
11735;SDS011;5924;51.398;7.088;2023-03-01T08:24:27;30.93;;;15.43;;
11735;SDS011;5924;51.398;7.088;2023-03-01T08:26:53;31.20;;;16.23;;
11735;SDS011;5924;51.398;7.088;2023-03-01T08:29:19;35.37;;;17.00;;
11735;SDS011;5924;51.398;7.088;2023-03-01T08:31:45;27.87;;;15.27;;
11735;SDS011;5924;51.398;7.088;2023-03-01T08:34:12;34.97;;;15.50;;
11735;SDS011;5924;51.398;7.088;2023-03-01T08:36:44;25.80;;;15.60;;
11735;SDS011;5924;51.398;7.088;2023-03-01T08:39:12;29.30;;;15.63;;
11735;SDS011;5924;51.398;7.088;2023-03-01T08:41:39;24.90;;;14.30;;
11735;SDS011;5924;51.398;7.088;2023-03-01T08:44:05;30.57;;;15.20;;
11735;SDS011;5924;51.398;7.088;2023-03-01T08:46:32;22.87;;;14.70;;
11735;SDS011;5924;51.398;7.088;2023-03-01T08:49:03;27.90;;;13.07;;
11735;SDS011;5924;51.398;7.088;2023-03-01T08:51:30;35.40;;;13.77;;
11735;SDS011;5924;51.398;7.088;2023-03-01T08:54:01;19.87;;;12.80;;
11735;SDS011;5924;51.398;7.088;2023-03-01T08:56:28;28.17;;;11.80;;
11735;SDS011;5924;51.398;7.088;2023-03-01T08:58:54;23.60;;;12.80;;
11735;SDS011;5924;51.398;7.088;2023-03-01T09:01:19;19.40;;;12.00;;
11735;SDS011;5924;51.398;7.088;2023-03-01T09:03:45;22.70;;;12.47;;
11735;SDS011;5924;51.398;7.088;2023-03-01T09:06:11;17.83;;;12.17;;
11735;SDS011;5924;51.398;7.088;2023-03-01T09:08:39;20.57;;;11.73;;
11735;SDS011;5924;51.398;7.088;2023-03-01T09:11:08;15.40;;;10.20;;
11735;SDS011;5924;51.398;7.088;2023-03-01T09:13:35;29.83;;;13.43;;
11735;SDS011;5924;51.398;7.088;2023-03-01T09:16:02;18.80;;;9.60;;
11735;SDS011;5924;51.398;7.088;2023-03-01T09:18:30;14.80;;;10.30;;
11735;SDS011;5924;51.398;7.088;2023-03-01T09:23:39;12.30;;;9.60;;
11735;SDS011;5924;51.398;7.088;2023-03-01T09:26:07;13.10;;;8.67;;
11735;SDS011;5924;51.398;7.088;2023-03-01T09:28:38;11.30;;;8.03;;
11735;SDS011;5924;51.398;7.088;2023-03-01T09:31:05;12.10;;;8.80;;
11735;SDS011;5924;51.398;7.088;2023-03-01T09:33:31;9.53;;;8.53;;
11735;SDS011;5924;51.398;7.088;2023-03-01T09:35:58;12.97;;;7.60;;
11735;SDS011;5924;51.398;7.088;2023-03-01T09:38:25;12.57;;;8.23;;
11735;SDS011;5924;51.398;7.088;2023-03-01T09:40:52;11.57;;;7.43;;
11735;SDS011;5924;51.398;7.088;2023-03-01T09:45:49;8.63;;;7.73;;
11735;SDS011;5924;51.398;7.088;2023-03-01T09:48:19;10.37;;;7.70;;
11735;SDS011;5924;51.398;7.088;2023-03-01T09:50:48;11.97;;;8.70;;
11735;SDS011;5924;51.398;7.088;2023-03-01T09:55:59;10.00;;;6.90;;
11735;SDS011;5924;51.398;7.088;2023-03-01T10:04:28;11.00;;;7.73;;
11735;SDS011;5924;51.398;7.088;2023-03-01T10:09:51;12.60;;;8.20;;
11735;SDS011;5924;51.398;7.088;2023-03-01T10:12:18;10.20;;;7.63;;
11735;SDS011;5924;51.398;7.088;2023-03-01T10:14:54;11.73;;;7.40;;
11735;SDS011;5924;51.398;7.088;2023-03-01T10:17:34;7.43;;;6.53;;
11735;SDS011;5924;51.398;7.088;2023-03-01T10:20:23;8.40;;;7.10;;
11735;SDS011;5924;51.398;7.088;2023-03-01T10:22:49;10.90;;;7.07;;
11735;SDS011;5924;51.398;7.088;2023-03-01T10:25:20;9.63;;;6.70;;
11735;SDS011;5924;51.398;7.088;2023-03-01T10:28:13;10.30;;;7.20;;
11735;SDS011;5924;51.398;7.088;2023-03-01T10:30:47;8.70;;;6.17;;
11735;SDS011;5924;51.398;7.088;2023-03-01T10:35:44;6.67;;;6.07;;
11735;SDS011;5924;51.398;7.088;2023-03-01T10:38:13;10.50;;;7.20;;
11735;SDS011;5924;51.398;7.088;2023-03-01T10:40:53;10.33;;;6.43;;
11735;SDS011;5924;51.398;7.088;2023-03-01T10:43:30;9.97;;;7.50;;
11735;SDS011;5924;51.398;7.088;2023-03-01T10:49:25;10.73;;;6.77;;
11735;SDS011;5924;51.398;7.088;2023-03-01T10:51:46;18.43;;;7.07;;
11735;SDS011;5924;51.398;7.088;2023-03-01T10:54:46;8.43;;;7.73;;
11735;SDS011;5924;51.398;7.088;2023-03-01T10:57:10;6.77;;;5.97;;
11735;SDS011;5924;51.398;7.088;2023-03-01T11:06:12;8.37;;;6.70;;
11735;SDS011;5924;51.398;7.088;2023-03-01T11:08:49;9.20;;;6.70;;
11735;SDS011;5924;51.398;7.088;2023-03-01T11:11:30;9.10;;;6.70;;
11735;SDS011;5924;51.398;7.088;2023-03-01T11:16:58;9.87;;;6.90;;
11735;SDS011;5924;51.398;7.088;2023-03-01T11:19:29;7.30;;;6.70;;
11735;SDS011;5924;51.398;7.088;2023-03-01T11:25:10;6.93;;;6.30;;
11735;SDS011;5924;51.398;7.088;2023-03-01T11:32:53;7.80;;;7.00;;
11735;SDS011;5924;51.398;7.088;2023-03-01T11:35:57;6.67;;;6.10;;
11735;SDS011;5924;51.398;7.088;2023-03-01T11:38:28;6.87;;;6.27;;
11735;SDS011;5924;51.398;7.088;2023-03-01T11:40:59;7.03;;;6.43;;
11735;SDS011;5924;51.398;7.088;2023-03-01T11:43:34;10.73;;;7.50;;
11735;SDS011;5924;51.398;7.088;2023-03-01T11:48:57;7.00;;;6.30;;
11735;SDS011;5924;51.398;7.088;2023-03-01T11:57:11;9.47;;;7.60;;
11735;SDS011;5924;51.398;7.088;2023-03-01T12:11:04;14.97;;;6.73;;
11735;SDS011;5924;51.398;7.088;2023-03-01T12:13:47;7.43;;;6.73;;
11735;SDS011;5924;51.398;7.088;2023-03-01T12:21:45;7.37;;;6.77;;
11735;SDS011;5924;51.398;7.088;2023-03-01T12:38:44;7.60;;;6.90;;
11735;SDS011;5924;51.398;7.088;2023-03-01T12:50:20;9.40;;;6.00;;
11735;SDS011;5924;51.398;7.088;2023-03-01T12:52:53;7.23;;;6.57;;
11735;SDS011;5924;51.398;7.088;2023-03-01T12:55:37;7.50;;;6.87;;
11735;SDS011;5924;51.398;7.088;2023-03-01T13:15:24;10.07;;;8.20;;
11735;SDS011;5924;51.398;7.088;2023-03-01T13:17:55;7.80;;;7.13;;
11735;SDS011;5924;51.398;7.088;2023-03-01T13:20:27;10.60;;;8.90;;
11735;SDS011;5924;51.398;7.088;2023-03-01T13:31:03;8.77;;;8.03;;
11735;SDS011;5924;51.398;7.088;2023-03-01T13:35:58;11.10;;;8.70;;
11735;SDS011;5924;51.398;7.088;2023-03-01T13:44:37;8.60;;;7.73;;
11735;SDS011;5924;51.398;7.088;2023-03-01T13:49:41;7.00;;;6.30;;
11735;SDS011;5924;51.398;7.088;2023-03-01T13:54:59;8.50;;;7.07;;
11735;SDS011;5924;51.398;7.088;2023-03-01T13:57:29;13.70;;;7.10;;
11735;SDS011;5924;51.398;7.088;2023-03-01T13:59:59;7.20;;;6.60;;
11735;SDS011;5924;51.398;7.088;2023-03-01T14:02:25;10.97;;;7.70;;
11735;SDS011;5924;51.398;7.088;2023-03-01T14:04:57;6.83;;;6.23;;
11735;SDS011;5924;51.398;7.088;2023-03-01T14:07:24;6.93;;;6.23;;
11735;SDS011;5924;51.398;7.088;2023-03-01T14:09:58;6.50;;;6.00;;
11735;SDS011;5924;51.398;7.088;2023-03-01T14:15:17;6.27;;;5.77;;
11735;SDS011;5924;51.398;7.088;2023-03-01T14:17:53;6.47;;;5.93;;
11735;SDS011;5924;51.398;7.088;2023-03-01T14:20:24;9.07;;;6.83;;
11735;SDS011;5924;51.398;7.088;2023-03-01T14:22:53;6.37;;;5.77;;
11735;SDS011;5924;51.398;7.088;2023-03-01T14:25:25;11.67;;;6.80;;
11735;SDS011;5924;51.398;7.088;2023-03-01T14:30:55;9.53;;;8.17;;
11735;SDS011;5924;51.398;7.088;2023-03-01T14:33:35;8.00;;;7.20;;
11735;SDS011;5924;51.398;7.088;2023-03-01T14:41:03;7.93;;;6.83;;
11735;SDS011;5924;51.398;7.088;2023-03-01T14:43:43;11.77;;;6.80;;
11735;SDS011;5924;51.398;7.088;2023-03-01T14:46:23;9.43;;;6.33;;
11735;SDS011;5924;51.398;7.088;2023-03-01T14:49:01;7.30;;;6.77;;
11735;SDS011;5924;51.398;7.088;2023-03-01T14:51:35;7.80;;;7.07;;
11735;SDS011;5924;51.398;7.088;2023-03-01T14:54:03;9.87;;;6.63;;
11735;SDS011;5924;51.398;7.088;2023-03-01T14:56:44;9.00;;;6.63;;
11735;SDS011;5924;51.398;7.088;2023-03-01T14:59:11;8.27;;;7.37;;
11735;SDS011;5924;51.398;7.088;2023-03-01T15:01:37;6.67;;;6.07;;
11735;SDS011;5924;51.398;7.088;2023-03-01T15:04:04;7.37;;;6.63;;
11735;SDS011;5924;51.398;7.088;2023-03-01T15:06:30;15.47;;;5.93;;
11735;SDS011;5924;51.398;7.088;2023-03-01T15:08:56;6.63;;;5.80;;
11735;SDS011;5924;51.398;7.088;2023-03-01T15:11:24;5.70;;;5.20;;
11735;SDS011;5924;51.398;7.088;2023-03-01T15:13:53;6.23;;;5.73;;
11735;SDS011;5924;51.398;7.088;2023-03-01T15:16:21;8.40;;;5.30;;
11735;SDS011;5924;51.398;7.088;2023-03-01T15:18:54;6.17;;;5.67;;
11735;SDS011;5924;51.398;7.088;2023-03-01T15:21:27;10.07;;;6.93;;
11735;SDS011;5924;51.398;7.088;2023-03-01T15:23:57;10.43;;;5.87;;
11735;SDS011;5924;51.398;7.088;2023-03-01T15:29:32;6.93;;;6.40;;
11735;SDS011;5924;51.398;7.088;2023-03-01T15:34:50;10.07;;;6.47;;
11735;SDS011;5924;51.398;7.088;2023-03-01T15:38:01;7.13;;;6.40;;
11735;SDS011;5924;51.398;7.088;2023-03-01T15:43:00;6.07;;;5.30;;
11735;SDS011;5924;51.398;7.088;2023-03-01T15:45:28;7.60;;;6.20;;
11735;SDS011;5924;51.398;7.088;2023-03-01T15:47:56;6.27;;;5.73;;
11735;SDS011;5924;51.398;7.088;2023-03-01T15:52:53;6.97;;;5.57;;
11735;SDS011;5924;51.398;7.088;2023-03-01T15:58:00;6.33;;;5.80;;
11735;SDS011;5924;51.398;7.088;2023-03-01T16:00:34;5.70;;;5.20;;
11735;SDS011;5924;51.398;7.088;2023-03-01T16:03:00;6.30;;;5.67;;
11735;SDS011;5924;51.398;7.088;2023-03-01T16:05:30;11.27;;;5.83;;
11735;SDS011;5924;51.398;7.088;2023-03-01T16:07:57;5.37;;;4.87;;
11735;SDS011;5924;51.398;7.088;2023-03-01T16:10:23;6.33;;;5.37;;
11735;SDS011;5924;51.398;7.088;2023-03-01T16:12:50;5.03;;;4.63;;
11735;SDS011;5924;51.398;7.088;2023-03-01T16:17:46;6.07;;;5.50;;
11735;SDS011;5924;51.398;7.088;2023-03-01T16:20:12;5.70;;;5.20;;
11735;SDS011;5924;51.398;7.088;2023-03-01T16:22:40;6.47;;;5.30;;
11735;SDS011;5924;51.398;7.088;2023-03-01T16:25:08;5.10;;;4.70;;
11735;SDS011;5924;51.398;7.088;2023-03-01T16:27:41;6.37;;;5.53;;
11735;SDS011;5924;51.398;7.088;2023-03-01T16:30:09;6.63;;;5.40;;
11735;SDS011;5924;51.398;7.088;2023-03-01T16:32:42;5.60;;;5.17;;
11735;SDS011;5924;51.398;7.088;2023-03-01T16:35:09;8.53;;;5.80;;
11735;SDS011;5924;51.398;7.088;2023-03-01T16:37:36;7.00;;;5.50;;
11735;SDS011;5924;51.398;7.088;2023-03-01T16:40:03;5.97;;;5.47;;
11735;SDS011;5924;51.398;7.088;2023-03-01T16:42:35;7.10;;;5.33;;
11735;SDS011;5924;51.398;7.088;2023-03-01T16:45:01;6.23;;;5.03;;
11735;SDS011;5924;51.398;7.088;2023-03-01T16:47:28;6.10;;;4.97;;
11735;SDS011;5924;51.398;7.088;2023-03-01T16:49:54;6.00;;;5.37;;
11735;SDS011;5924;51.398;7.088;2023-03-01T16:52:20;6.60;;;5.63;;
11735;SDS011;5924;51.398;7.088;2023-03-01T16:54:47;6.10;;;5.50;;
11735;SDS011;5924;51.398;7.088;2023-03-01T16:57:13;12.40;;;5.37;;
11735;SDS011;5924;51.398;7.088;2023-03-01T16:59:41;7.07;;;5.50;;
11735;SDS011;5924;51.398;7.088;2023-03-01T17:02:11;6.03;;;5.10;;
11735;SDS011;5924;51.398;7.088;2023-03-01T17:04:38;8.40;;;4.80;;
11735;SDS011;5924;51.398;7.088;2023-03-01T17:07:04;7.07;;;6.37;;
11735;SDS011;5924;51.398;7.088;2023-03-01T17:09:34;5.03;;;4.57;;
11735;SDS011;5924;51.398;7.088;2023-03-01T17:12:01;8.30;;;6.70;;
11735;SDS011;5924;51.398;7.088;2023-03-01T17:14:28;8.23;;;5.90;;
11735;SDS011;5924;51.398;7.088;2023-03-01T17:16:54;6.07;;;5.47;;
11735;SDS011;5924;51.398;7.088;2023-03-01T17:19:20;10.47;;;6.33;;
11735;SDS011;5924;51.398;7.088;2023-03-01T17:21:45;6.27;;;5.00;;
11735;SDS011;5924;51.398;7.088;2023-03-01T17:24:11;7.20;;;4.93;;
11735;SDS011;5924;51.398;7.088;2023-03-01T17:26:37;6.00;;;5.40;;
11735;SDS011;5924;51.398;7.088;2023-03-01T17:29:04;5.67;;;5.17;;
11735;SDS011;5924;51.398;7.088;2023-03-01T17:31:31;5.73;;;5.10;;
11735;SDS011;5924;51.398;7.088;2023-03-01T17:33:59;5.40;;;4.97;;
11735;SDS011;5924;51.398;7.088;2023-03-01T17:36:26;10.63;;;5.60;;
11735;SDS011;5924;51.398;7.088;2023-03-01T17:38:51;5.73;;;5.23;;